createdAt,value
2023-03-31T00:02:16.240Z,6.30
2023-03-31T00:04:46.793Z,6.28
2023-03-31T00:07:16.637Z,6.26
2023-03-31T00:09:46.394Z,6.25
2023-03-31T00:12:23.771Z,6.22
2023-03-31T00:14:52.284Z,6.20
2023-03-31T00:17:33.388Z,6.18
2023-03-31T00:20:05.016Z,6.16
2023-03-31T00:22:33.600Z,6.15
2023-03-31T00:25:01.947Z,6.15
2023-03-31T00:27:32.970Z,6.14
2023-03-31T00:30:21.574Z,6.13
2023-03-31T00:33:02.716Z,6.10
2023-03-31T00:36:17.408Z,6.08
2023-03-31T00:39:18.982Z,6.05
2023-03-31T00:41:49.494Z,6.02
2023-03-31T00:44:29.291Z,6.00
2023-03-31T00:47:08.104Z,5.98
2023-03-31T00:49:46.552Z,5.89
2023-03-31T00:52:28.461Z,5.83
2023-03-31T00:55:01.281Z,5.79
2023-03-31T00:57:39.284Z,5.76
2023-03-31T01:00:19.434Z,5.74
2023-03-31T01:03:12.951Z,5.71
2023-03-31T01:05:58.858Z,5.69
2023-03-31T01:08:32.254Z,5.68
2023-03-31T01:11:04.743Z,5.66
2023-03-31T01:13:37.196Z,5.64
2023-03-31T01:16:08.386Z,5.63
2023-03-31T01:18:40.165Z,5.62
2023-03-31T01:21:30.746Z,5.61
2023-03-31T01:24:17.866Z,5.57
2023-03-31T01:27:00.152Z,5.55
2023-03-31T01:29:50.519Z,5.53
2023-03-31T01:32:24.705Z,5.51
2023-03-31T01:35:15.009Z,5.49
2023-03-31T01:37:49.274Z,5.47
2023-03-31T01:40:40.337Z,5.45
2023-03-31T01:43:28.603Z,5.41
2023-03-31T01:46:33.083Z,5.35
2023-03-31T01:49:26.192Z,5.29
2023-03-31T01:52:33.428Z,5.25
2023-03-31T01:55:14.212Z,5.20
2023-03-31T01:57:51.136Z,5.17
2023-03-31T02:00:26.734Z,5.13
2023-03-31T02:03:28.085Z,5.10
2023-03-31T02:06:00.299Z,5.08
2023-03-31T02:08:44.294Z,5.06
2023-03-31T02:11:13.495Z,5.02
2023-03-31T02:13:47.629Z,5.00
2023-03-31T02:16:24.581Z,4.99
2023-03-31T02:19:04.132Z,4.98
2023-03-31T02:21:34.711Z,4.98
2023-03-31T02:24:12.056Z,4.95
2023-03-31T02:26:55.376Z,4.91
2023-03-31T02:29:24.061Z,4.89
2023-03-31T02:31:57.798Z,4.88
2023-03-31T02:34:26.159Z,4.87
2023-03-31T02:36:55.656Z,4.82
2023-03-31T02:39:33.557Z,4.77
2023-03-31T02:42:07.659Z,4.75
2023-03-31T02:44:37.967Z,4.72
2023-03-31T02:47:18.160Z,4.71
2023-03-31T02:49:51.647Z,4.71
2023-03-31T02:52:32.224Z,4.69
2023-03-31T02:55:12.801Z,4.68
2023-03-31T02:57:47.418Z,4.68
2023-03-31T03:00:37.800Z,4.68
2023-03-31T03:03:50.469Z,4.70
2023-03-31T03:06:27.953Z,4.68
2023-03-31T03:09:36.475Z,4.63
2023-03-31T03:12:22.059Z,4.60
2023-03-31T03:14:52.913Z,4.60
2023-03-31T03:17:27.749Z,4.61
2023-03-31T03:20:01.437Z,4.62
2023-03-31T03:22:32.475Z,4.62
2023-03-31T03:25:01.609Z,4.63
2023-03-31T03:27:30.123Z,4.64
2023-03-31T03:29:58.880Z,4.64
2023-03-31T03:32:27.250Z,4.63
2023-03-31T03:34:55.706Z,4.63
2023-03-31T03:37:24.030Z,4.63
2023-03-31T03:40:12.529Z,4.62
2023-03-31T03:42:40.663Z,4.63
2023-03-31T03:45:10.079Z,4.59
2023-03-31T03:47:41.792Z,4.52
2023-03-31T03:50:20.759Z,4.44
2023-03-31T03:52:49.079Z,4.37
2023-03-31T03:55:18.005Z,4.29
2023-03-31T03:57:48.585Z,4.21
2023-03-31T04:00:17.700Z,4.16
2023-03-31T04:02:49.341Z,4.11
2023-03-31T04:05:20.754Z,4.03
2023-03-31T04:07:49.455Z,3.98
2023-03-31T04:10:17.851Z,3.94
2023-03-31T04:12:46.213Z,3.97
2023-03-31T04:15:14.499Z,3.99
2023-03-31T04:17:54.911Z,4.03
2023-03-31T04:20:28.163Z,4.07
2023-03-31T04:22:56.418Z,4.10
2023-03-31T04:25:24.957Z,4.12
2023-03-31T04:27:56.355Z,4.13
2023-03-31T04:30:31.179Z,4.16
2023-03-31T04:33:04.384Z,4.19
2023-03-31T04:35:59.556Z,4.21
2023-03-31T04:38:33.712Z,4.24
2023-03-31T04:41:02.290Z,4.26
2023-03-31T04:43:33.018Z,4.24
2023-03-31T04:46:01.495Z,4.24
2023-03-31T04:48:40.888Z,4.26
2023-03-31T04:51:09.527Z,4.30
2023-03-31T04:53:50.496Z,4.32
2023-03-31T04:56:31.170Z,4.31
2023-03-31T04:59:08.370Z,4.32
2023-03-31T05:01:45.331Z,4.35
2023-03-31T05:04:14.143Z,4.39
2023-03-31T05:07:02.997Z,4.41
2023-03-31T05:09:51.473Z,4.45
2023-03-31T05:12:25.990Z,4.46
2023-03-31T05:14:57.536Z,4.43
2023-03-31T05:17:33.006Z,4.38
2023-03-31T05:20:08.709Z,4.31
2023-03-31T05:22:38.861Z,4.30
2023-03-31T05:25:09.414Z,4.31
2023-03-31T05:27:37.941Z,4.33
2023-03-31T05:30:08.186Z,4.38
2023-03-31T05:32:40.687Z,4.37
2023-03-31T05:35:11.989Z,4.36
2023-03-31T05:37:43.031Z,4.36
2023-03-31T05:40:11.714Z,4.37
2023-03-31T05:42:40.178Z,4.41
2023-03-31T05:45:09.520Z,4.43
2023-03-31T05:47:41.146Z,4.44
2023-03-31T05:50:44.661Z,4.38
2023-03-31T05:53:22.661Z,4.40
2023-03-31T05:55:56.365Z,4.43
2023-03-31T05:58:24.538Z,4.47
2023-03-31T06:01:10.723Z,4.52
2023-03-31T06:03:42.991Z,4.57
2023-03-31T06:06:13.376Z,4.61
2023-03-31T06:08:42.482Z,4.58
2023-03-31T06:11:13.851Z,4.60
2023-03-31T06:13:43.073Z,4.63
2023-03-31T06:16:13.030Z,4.67
2023-03-31T06:18:44.946Z,4.68
2023-03-31T06:21:17.833Z,4.69
2023-03-31T06:23:46.326Z,4.70
2023-03-31T06:26:19.121Z,4.72
2023-03-31T06:28:47.692Z,4.76
2023-03-31T06:31:20.070Z,4.79
2023-03-31T06:33:49.170Z,4.80
2023-03-31T06:36:20.089Z,4.83
2023-03-31T06:38:50.251Z,4.84
2023-03-31T06:41:21.219Z,4.84
2023-03-31T06:43:50.172Z,4.82
2023-03-31T06:46:18.877Z,4.82
2023-03-31T06:48:47.489Z,4.82
2023-03-31T06:51:16.034Z,4.85
2023-03-31T06:53:44.615Z,4.86
2023-03-31T06:56:12.919Z,4.89
2023-03-31T06:58:41.011Z,4.90
2023-03-31T07:01:11.176Z,4.91
2023-03-31T07:03:40.122Z,4.95
2023-03-31T07:06:08.528Z,4.98
2023-03-31T07:08:36.927Z,4.99
2023-03-31T07:11:05.916Z,5.00
2023-03-31T07:13:34.287Z,5.06
2023-03-31T07:16:05.064Z,5.12
2023-03-31T07:18:35.522Z,5.15
2023-03-31T07:21:07.143Z,5.17
2023-03-31T07:23:37.322Z,5.24
2023-03-31T07:26:06.552Z,5.32
2023-03-31T07:28:35.817Z,5.42
2023-03-31T07:31:13.640Z,5.50
2023-03-31T07:33:42.409Z,5.57
2023-03-31T07:36:13.490Z,5.63
2023-03-31T07:38:49.817Z,5.62
2023-03-31T07:41:20.522Z,5.62
2023-03-31T07:43:50.673Z,5.61
2023-03-31T07:46:22.705Z,5.60
2023-03-31T07:48:52.453Z,5.64
2023-03-31T07:51:23.215Z,5.69
2023-03-31T07:53:52.805Z,5.75
2023-03-31T07:56:23.809Z,5.83
2023-03-31T07:58:57.568Z,5.91
2023-03-31T08:01:29.601Z,6.00
2023-03-31T08:03:59.364Z,6.06
2023-03-31T08:06:32.195Z,6.14
2023-03-31T08:09:07.694Z,6.22
2023-03-31T08:11:36.847Z,6.30
2023-03-31T08:14:30.494Z,6.36
2023-03-31T08:17:06.783Z,6.40
2023-03-31T08:19:38.435Z,6.44
2023-03-31T08:22:14.595Z,6.47
2023-03-31T08:24:47.198Z,6.53
2023-03-31T08:27:18.634Z,6.60
2023-03-31T08:29:50.092Z,6.72
2023-03-31T08:32:18.490Z,6.83
2023-03-31T08:34:59.630Z,6.96
2023-03-31T08:37:37.252Z,7.06
2023-03-31T08:40:35.359Z,7.16
2023-03-31T08:43:17.305Z,7.23
2023-03-31T08:45:54.153Z,7.31
2023-03-31T08:48:46.425Z,7.43
2023-03-31T08:51:21.878Z,7.55
2023-03-31T08:54:18.722Z,7.65
2023-03-31T08:56:51.623Z,7.82
2023-03-31T08:59:51.116Z,8.00
2023-03-31T09:02:53.635Z,8.29
2023-03-31T09:05:59.457Z,8.54
2023-03-31T09:09:13.183Z,8.73
2023-03-31T09:12:24.676Z,8.85
2023-03-31T09:15:29.814Z,9.03
2023-03-31T09:18:10.729Z,9.30
2023-03-31T09:21:13.894Z,9.55
2023-03-31T09:24:07.237Z,9.70
2023-03-31T09:27:09.024Z,9.73
2023-03-31T09:29:49.792Z,9.70
2023-03-31T09:32:24.874Z,9.69
2023-03-31T09:35:01.321Z,9.70
2023-03-31T09:37:33.286Z,9.70
2023-03-31T09:40:08.107Z,9.70
2023-03-31T09:42:37.916Z,9.75
2023-03-31T09:45:15.526Z,9.82
2023-03-31T09:47:47.402Z,9.85
2023-03-31T09:50:25.156Z,9.85
2023-03-31T09:52:58.858Z,9.81
2023-03-31T09:55:52.672Z,9.82
2023-03-31T09:58:31.866Z,9.87
2023-03-31T10:01:14.493Z,10.05
2023-03-31T10:03:56.149Z,10.33
2023-03-31T10:06:26.964Z,10.63
2023-03-31T10:09:01.756Z,10.97
2023-03-31T10:11:30.731Z,11.35
2023-03-31T10:14:22.705Z,11.72
2023-03-31T10:16:59.230Z,12.13
2023-03-31T10:19:34.386Z,12.61
2023-03-31T10:22:06.463Z,12.92
2023-03-31T10:24:45.972Z,13.14
2023-03-31T10:27:38.903Z,13.27
2023-03-31T10:30:21.828Z,13.37
2023-03-31T10:32:54.820Z,13.54
2023-03-31T10:35:32.977Z,13.65
2023-03-31T10:38:13.361Z,13.77
2023-03-31T10:40:51.138Z,13.92
2023-03-31T10:43:30.434Z,14.06
2023-03-31T10:46:02.357Z,14.16
2023-03-31T10:48:38.872Z,14.12
2023-03-31T10:51:20.363Z,13.99
2023-03-31T10:53:52.199Z,13.81
2023-03-31T10:56:44.749Z,13.80
2023-03-31T11:00:05.286Z,13.85
2023-03-31T11:02:52.573Z,13.92
2023-03-31T11:05:37.137Z,14.05
2023-03-31T11:08:41.053Z,14.25
2023-03-31T11:11:51.189Z,14.34
2023-03-31T11:14:54.036Z,14.51
2023-03-31T11:18:03.533Z,14.64
2023-03-31T11:21:04.640Z,14.76
2023-03-31T11:23:45.892Z,14.94
2023-03-31T11:26:24.714Z,15.12
2023-03-31T11:29:16.620Z,15.35
2023-03-31T11:32:09.667Z,15.56
2023-03-31T11:35:02.836Z,15.55
2023-03-31T11:37:35.626Z,15.52
2023-03-31T11:40:36.354Z,15.58
2023-03-31T11:43:12.120Z,15.61
2023-03-31T11:45:47.892Z,15.53
2023-03-31T11:48:44.853Z,15.39
2023-03-31T11:52:06.052Z,15.31
2023-03-31T11:54:45.411Z,15.11
2023-03-31T11:57:20.980Z,14.84
2023-03-31T12:00:07.446Z,14.72
2023-03-31T12:03:02.115Z,14.67
2023-03-31T12:05:44.694Z,14.65
2023-03-31T12:08:36.161Z,14.63
2023-03-31T12:11:13.240Z,14.72
2023-03-31T12:14:14.099Z,14.83
2023-03-31T12:16:53.232Z,14.98
2023-03-31T12:19:37.165Z,15.06
2023-03-31T12:22:15.702Z,15.07
2023-03-31T12:24:44.528Z,15.01
2023-03-31T12:27:38.030Z,14.93
2023-03-31T12:30:44.237Z,14.89
2023-03-31T12:33:39.724Z,14.88
2023-03-31T12:36:30.221Z,14.86
2023-03-31T12:39:37.325Z,14.80
2023-03-31T12:42:51.226Z,14.86
2023-03-31T12:45:40.125Z,14.97
2023-03-31T12:48:11.800Z,15.01
2023-03-31T12:51:31.705Z,15.08
2023-03-31T12:54:29.171Z,15.12
2023-03-31T12:57:24.067Z,15.11
2023-03-31T13:00:22.807Z,15.09
2023-03-31T13:03:46.279Z,14.99
2023-03-31T13:06:29.938Z,14.91
2023-03-31T13:09:06.053Z,14.89
2023-03-31T13:11:37.024Z,14.76
2023-03-31T13:14:19.290Z,14.48
2023-03-31T13:16:56.625Z,14.34
2023-03-31T13:19:36.367Z,14.36
2023-03-31T13:22:07.060Z,14.41
2023-03-31T13:24:35.563Z,14.44
2023-03-31T13:27:28.595Z,14.48
2023-03-31T13:29:56.796Z,14.46
2023-03-31T13:32:26.889Z,14.45
2023-03-31T13:35:04.304Z,14.44
2023-03-31T13:38:10.276Z,14.39
2023-03-31T13:41:29.363Z,14.35
2023-03-31T13:44:13.776Z,14.24
2023-03-31T13:46:58.215Z,14.15
2023-03-31T13:49:45.062Z,14.10
2023-03-31T13:52:14.352Z,14.11
2023-03-31T13:54:51.586Z,14.13
2023-03-31T13:57:51.982Z,14.15
2023-03-31T14:00:35.103Z,14.12
2023-03-31T14:03:34.445Z,14.07
2023-03-31T14:06:07.357Z,13.96
2023-03-31T14:08:38.497Z,13.85
2023-03-31T14:11:35.904Z,13.76
2023-03-31T14:14:33.498Z,13.60
2023-03-31T14:17:03.779Z,13.48
2023-03-31T14:19:48.347Z,13.38
2023-03-31T14:22:35.044Z,13.30
2023-03-31T14:25:23.902Z,13.29
2023-03-31T14:28:13.791Z,13.31
2023-03-31T14:31:21.445Z,13.29
2023-03-31T14:34:09.722Z,13.23
2023-03-31T14:36:41.926Z,13.16
2023-03-31T14:39:13.033Z,13.09
2023-03-31T14:41:41.847Z,13.03
2023-03-31T14:44:19.303Z,12.99
2023-03-31T14:46:47.631Z,12.95
2023-03-31T14:49:21.784Z,12.93
2023-03-31T14:51:53.311Z,12.94
2023-03-31T14:54:22.276Z,12.94
2023-03-31T14:56:56.624Z,12.93
2023-03-31T14:59:39.221Z,12.88
2023-03-31T15:02:16.367Z,12.83
2023-03-31T15:04:48.341Z,12.79
2023-03-31T15:07:18.099Z,12.76
2023-03-31T15:09:50.592Z,12.75
2023-03-31T15:12:23.577Z,12.76
2023-03-31T15:14:58.977Z,12.75
2023-03-31T15:17:38.526Z,12.73
2023-03-31T15:20:35.535Z,12.73
2023-03-31T15:23:25.065Z,12.69
2023-03-31T15:26:08.272Z,12.64
2023-03-31T15:28:47.556Z,12.58
2023-03-31T15:31:37.030Z,12.50
2023-03-31T15:34:25.651Z,12.37
2023-03-31T15:36:56.611Z,12.28
2023-03-31T15:39:32.318Z,12.22
2023-03-31T15:42:10.379Z,12.18
2023-03-31T15:45:09.263Z,12.15
2023-03-31T15:47:38.797Z,12.10
2023-03-31T15:50:10.108Z,12.04
2023-03-31T15:52:50.075Z,11.95
2023-03-31T15:55:40.515Z,11.83
2023-03-31T15:58:16.879Z,11.72
2023-03-31T16:00:52.690Z,11.64
2023-03-31T16:03:30.351Z,11.57
2023-03-31T16:06:04.304Z,11.49
2023-03-31T16:08:42.982Z,11.39
2023-03-31T16:11:13.594Z,11.30
2023-03-31T16:13:54.743Z,11.24
2023-03-31T16:16:25.767Z,11.18
2023-03-31T16:19:05.873Z,11.10
2023-03-31T16:21:41.843Z,11.04
2023-03-31T16:24:10.821Z,10.91
2023-03-31T16:26:41.760Z,10.70
2023-03-31T16:29:20.818Z,10.48
2023-03-31T16:31:52.334Z,10.28
2023-03-31T16:34:24.495Z,10.16
2023-03-31T16:36:55.569Z,10.05
2023-03-31T16:39:23.932Z,9.99
2023-03-31T16:42:12.561Z,9.96
2023-03-31T16:44:44.410Z,9.89
2023-03-31T16:47:35.042Z,9.80
2023-03-31T16:50:25.156Z,9.76
2023-03-31T16:52:56.835Z,9.75
2023-03-31T16:55:49.439Z,9.74
2023-03-31T16:58:31.524Z,9.71
2023-03-31T17:01:11.575Z,9.71
2023-03-31T17:04:11.088Z,9.71
2023-03-31T17:06:50.040Z,9.69
2023-03-31T17:09:38.803Z,9.62
2023-03-31T17:12:43.472Z,9.52
2023-03-31T17:15:12.447Z,9.39
2023-03-31T17:17:52.737Z,9.29
2023-03-31T17:20:35.582Z,9.17
2023-03-31T17:23:14.052Z,9.03
2023-03-31T17:26:06.103Z,8.89
2023-03-31T17:28:37.823Z,8.75
2023-03-31T17:31:13.659Z,8.61
2023-03-31T17:34:18.181Z,8.45
2023-03-31T17:36:54.945Z,8.27
2023-03-31T17:39:27.667Z,8.12
2023-03-31T17:41:58.876Z,7.96
2023-03-31T17:44:29.759Z,7.73
2023-03-31T17:47:03.939Z,7.55
2023-03-31T17:49:33.108Z,7.45
2023-03-31T17:52:02.040Z,7.35
2023-03-31T17:54:30.116Z,7.26
2023-03-31T17:56:59.208Z,7.17
2023-03-31T17:59:38.947Z,7.08
2023-03-31T18:02:13.291Z,7.01
2023-03-31T18:04:42.038Z,6.91
2023-03-31T18:07:10.845Z,6.84
2023-03-31T18:09:39.759Z,6.81
2023-03-31T18:12:08.427Z,6.77
2023-03-31T18:14:37.571Z,6.74
2023-03-31T18:17:16.321Z,6.73
2023-03-31T18:19:44.904Z,6.71
2023-03-31T18:22:13.660Z,6.69
2023-03-31T18:24:44.619Z,6.65
2023-03-31T18:27:12.734Z,6.63
2023-03-31T18:29:41.417Z,6.62
2023-03-31T18:32:10.128Z,6.63
2023-03-31T18:34:38.652Z,6.64
2023-03-31T18:37:08.111Z,6.66
2023-03-31T18:39:36.782Z,6.68
2023-03-31T18:42:05.544Z,6.75
2023-03-31T18:44:39.264Z,6.80
2023-03-31T18:47:28.278Z,6.85
2023-03-31T18:50:10.069Z,6.85
2023-03-31T18:52:38.823Z,6.84
2023-03-31T18:55:10.721Z,6.85
2023-03-31T18:57:41.337Z,6.88
2023-03-31T19:00:21.456Z,6.93
2023-03-31T19:03:13.932Z,6.96
2023-03-31T19:06:02.848Z,6.99
2023-03-31T19:08:32.665Z,7.03
2023-03-31T19:11:10.758Z,7.06
2023-03-31T19:13:43.177Z,7.09
2023-03-31T19:16:24.671Z,7.13
2023-03-31T19:18:54.234Z,7.15
2023-03-31T19:21:23.392Z,7.17
2023-03-31T19:23:56.363Z,7.20
2023-03-31T19:26:27.096Z,7.22
2023-03-31T19:28:56.926Z,7.28
2023-03-31T19:31:47.682Z,7.34
2023-03-31T19:34:16.802Z,7.43
2023-03-31T19:36:45.339Z,7.51
2023-03-31T19:39:14.680Z,7.57
2023-03-31T19:41:53.434Z,7.65
2023-03-31T19:44:24.401Z,7.71
2023-03-31T19:46:52.958Z,7.77
2023-03-31T19:49:24.051Z,7.82
2023-03-31T19:52:05.829Z,7.86
2023-03-31T19:54:47.631Z,7.90
2023-03-31T19:57:20.858Z,7.93
2023-03-31T19:59:59.343Z,7.97
2023-03-31T20:02:30.398Z,8.00
2023-03-31T20:05:19.852Z,8.02
2023-03-31T20:08:06.074Z,8.05
2023-03-31T20:10:34.978Z,8.06
2023-03-31T20:13:07.881Z,8.09
2023-03-31T20:15:41.167Z,8.09
2023-03-31T20:18:09.910Z,8.12
2023-03-31T20:20:40.969Z,8.15
2023-03-31T20:23:16.146Z,8.17
2023-03-31T20:26:07.888Z,8.19
2023-03-31T20:28:54.972Z,8.19
2023-03-31T20:31:40.164Z,8.20
2023-03-31T20:34:47.162Z,8.24
2023-03-31T20:37:19.211Z,8.28
2023-03-31T20:39:53.664Z,8.31
2023-03-31T20:42:22.538Z,8.35
2023-03-31T20:44:51.432Z,8.37
2023-03-31T20:47:29.767Z,8.41
2023-03-31T20:50:12.970Z,8.42
2023-03-31T20:53:06.015Z,8.44
2023-03-31T20:55:49.560Z,8.45
2023-03-31T20:58:18.146Z,8.48
2023-03-31T21:00:59.072Z,8.48
2023-03-31T21:03:45.698Z,8.50
2023-03-31T21:06:19.773Z,8.51
2023-03-31T21:09:12.460Z,8.52
2023-03-31T21:12:01.002Z,8.52
2023-03-31T21:14:55.554Z,8.49
2023-03-31T21:17:53.230Z,8.50
2023-03-31T21:21:04.580Z,8.50
2023-03-31T21:23:33.377Z,8.49
2023-03-31T21:26:06.538Z,8.49
2023-03-31T21:28:37.096Z,8.48
2023-03-31T21:31:22.608Z,8.48
2023-03-31T21:33:52.589Z,8.47
2023-03-31T21:36:23.142Z,8.46
2023-03-31T21:38:56.571Z,8.43
2023-03-31T21:41:39.742Z,8.41
2023-03-31T21:44:11.291Z,8.39
2023-03-31T21:46:40.154Z,8.37
2023-03-31T21:49:10.917Z,8.37
2023-03-31T21:51:55.025Z,8.37
2023-03-31T21:54:32.148Z,8.36
2023-03-31T21:57:00.887Z,8.35
2023-03-31T21:59:29.415Z,8.36
2023-03-31T22:02:20.374Z,8.36
2023-03-31T22:04:50.217Z,8.35
2023-03-31T22:07:18.848Z,8.34
2023-03-31T22:09:47.223Z,8.34
2023-03-31T22:12:15.687Z,8.35
2023-03-31T22:14:44.049Z,8.34
2023-03-31T22:17:12.543Z,8.33
2023-03-31T22:19:40.924Z,8.32
2023-03-31T22:22:10.786Z,8.33
2023-03-31T22:24:41.266Z,8.32
2023-03-31T22:27:12.338Z,8.33
2023-03-31T22:29:41.408Z,8.35
2023-03-31T22:32:21.632Z,8.36
2023-03-31T22:34:52.811Z,8.36
2023-03-31T22:37:23.947Z,8.36
2023-03-31T22:40:06.286Z,8.35
2023-03-31T22:42:35.190Z,8.35
2023-03-31T22:45:13.237Z,8.34
2023-03-31T22:47:47.433Z,8.30
2023-03-31T22:50:18.585Z,8.25
2023-03-31T22:52:53.402Z,8.14
2023-03-31T22:55:24.889Z,8.04
2023-03-31T22:57:55.763Z,7.98
2023-03-31T23:00:34.171Z,7.92
2023-03-31T23:03:02.576Z,7.87
2023-03-31T23:05:33.961Z,7.80
2023-03-31T23:08:04.621Z,7.77
2023-03-31T23:10:33.170Z,7.78
2023-03-31T23:13:06.151Z,7.77
2023-03-31T23:15:37.565Z,7.78
2023-03-31T23:18:06.547Z,7.80
2023-03-31T23:21:08.122Z,7.81
2023-03-31T23:23:36.847Z,7.82
2023-03-31T23:26:06.558Z,7.85
2023-03-31T23:28:40.253Z,7.86
2023-03-31T23:31:09.469Z,7.87
2023-03-31T23:33:38.240Z,7.86
2023-03-31T23:36:09.954Z,7.85
2023-03-31T23:38:38.054Z,7.86
2023-03-31T23:41:06.958Z,7.85
2023-03-31T23:43:35.442Z,7.83
2023-03-31T23:46:06.726Z,7.81
2023-03-31T23:48:39.989Z,7.81
2023-03-31T23:51:10.302Z,7.81
2023-03-31T23:53:39.000Z,7.80
2023-03-31T23:56:10.591Z,7.81
2023-03-31T23:58:40.535Z,7.81
